Αρχική σελίδα
METAR-TAF:

METAR-TAF

Αεροδρόμια :

Αβάνα, Κούβα

γεωγραφικό πλάτος: 22-59N, γεωγραφικό μήκος: 082-24W, υψόμετρο: 59 μ

Παρών καιρός

Η αναφορά έγινε 2 ώρες και 34 λεπτά πριν, στις 20:55 UTC
Άνεμος 8 kt από Α/BA, μεταβλητός μεταξύ Β/BA και ΝA
Θερμοκρασία 32°C
Υγρασία 63%
Πίεση 1015 hPa
Ορατότητα: 9000 μ
Λίγα νέφη σε ύψος 2500 πόδια, Σωρείτες καθέτου αναπτύξεως.

METAR: MUHA 252055Z 06008KT 030V130 9000 FEW025TCU 32/24 Q1015

Χρόνος: 19:29 (23:29 UTC)

Πρόγνωση Καιρού

Η αναφορά έγινε 6 ώρες και 29 λεπτά πριν, στις 17:00 UTC
Η πρόγνωση ισχύει από τις 25 στις 18 UTC έως τις 26 στις 18 UTC
Άνεμος 8 kt από Α
Ορατότητα: 9000 μ
Λίγα νέφη σε ύψος 3000 πόδια
Προσωρινά
από 25 στις 22 UTC έως τις 26 στις 02 UTC
Ορατότητα: 5000 μ
Αρκετά νέφη σε ύψος 2000 πόδια, Σωρειτομελανίτες.
Όμβροι

TAF: MUHA 251700Z 2518/2618 10008KT 9000 FEW030 TEMPO 2522/2602 5000 SHRA BKN020CB

Μετεωρολογικές αναφορές και προγνώσεις για περισσότερα από 4000 αεροδρόμια (δελτία METAR και TAF).

Οι διαθέσιμοι σταθμοί απεικονίζονται στο χάρτη με κίτρινες και κόκκινες κουκκίδες.

Μετακινήστε το ποντίκι πάνω από τις κουκκίδες για να δείτε το όνομα του σταθμού.

Στη συνέχεια, κάντε κλικ για να δείτε τις μετεωρολογικές αναφορές και τις προγνώσεις καιρού.

Για να αλλάξετε το χάρτη: κάντε κλικ στα πράσινα κουμπιά με τον μαύρο σταυρό για να ζουμάρετε, στο πράσινο κουμπί με την παύλα για να αφαιρέσετε το ζουμ ή στα πράσινα βέλη για να αντιπαραβάλλετε χάρτες.


METAR-TAF: